Time;durP1;ratioP1;P1;durP2;ratioP2;P2;SDS_P1;SDS_P2;PMS_P1;PMS_P2;Temp;Humidity;BMP_temperature;BMP_pressure;BME280_temperature;BME280_humidity;BME280_pressure;Samples;Min_cycle;Max_cycle;Signal;HPM_P1;HPM_P2
2023/01/24 00:00:32;;;;;;;;;79.00;65.00;;;;;20.39;39.00;103391.16;5058197;28;46026;-73
2023/01/24 00:02:58;;;;;;;;;77.25;66.00;;;;;20.33;39.13;103384.50;5058631;28;45223;-73
2023/01/24 00:05:23;;;;;;;;;77.25;57.00;;;;;20.33;39.25;103399.50;5057939;28;45182;-73
2023/01/24 00:07:49;;;;;;;;;75.75;60.25;;;;;20.38;38.78;103407.97;5058611;28;45281;-73
2023/01/24 00:10:15;;;;;;;;;71.25;58.75;;;;;20.37;38.87;103401.00;5058218;28;46097;-73
2023/01/24 00:12:40;;;;;;;;;76.00;62.00;;;;;20.36;38.92;103402.81;5058123;28;45392;-74
2023/01/24 00:15:06;;;;;;;;;76.25;61.75;;;;;20.36;38.81;103400.16;5058523;28;45372;-73
2023/01/24 00:17:31;;;;;;;;;70.25;58.75;;;;;20.37;38.86;103408.94;5058355;28;45379;-72
2023/01/24 00:19:56;;;;;;;;;74.00;59.25;;;;;20.29;39.06;103402.38;5057447;28;46311;-73
2023/01/24 00:22:22;;;;;;;;;68.25;54.25;;;;;20.30;39.07;103395.28;5058126;28;45455;-73
2023/01/24 00:24:48;;;;;;;;;75.00;61.50;;;;;20.27;38.87;103398.97;5057601;28;45382;-73
2023/01/24 00:27:14;;;;;;;;;71.00;54.75;;;;;20.35;38.93;103416.97;5057703;28;45341;-72
2023/01/24 00:29:39;;;;;;;;;76.00;58.50;;;;;20.35;39.32;103429.34;5057796;28;47470;-73
2023/01/24 00:32:05;;;;;;;;;70.25;55.00;;;;;20.34;38.76;103425.00;5058207;28;45376;-73
2023/01/24 00:34:30;;;;;;;;;70.00;55.25;;;;;20.21;38.67;103412.63;5057733;28;45285;-72
2023/01/24 00:36:55;;;;;;;;;67.50;53.25;;;;;20.34;39.06;103417.06;5057962;28;45407;-72
2023/01/24 00:39:20;;;;;;;;;69.50;53.00;;;;;20.33;38.97;103423.31;5057748;28;46156;-73
2023/01/24 00:41:46;;;;;;;;;69.75;54.25;;;;;20.28;38.67;103411.25;5057972;28;45400;-73
2023/01/24 00:44:11;;;;;;;;;71.00;54.00;;;;;20.33;38.54;103407.44;5058065;28;45316;-73
2023/01/24 00:46:37;;;;;;;;;67.25;53.00;;;;;20.32;38.73;103422.47;5057777;28;45526;-73
2023/01/24 00:49:02;;;;;;;;;65.00;50.75;;;;;20.28;38.78;103400.69;5057519;28;45485;-73
2023/01/24 00:51:27;;;;;;;;;68.50;52.75;;;;;20.31;38.59;103407.56;5057735;28;45446;-72
2023/01/24 00:53:53;;;;;;;;;66.00;52.00;;;;;20.32;38.70;103403.97;5057931;28;45628;-73
2023/01/24 00:56:18;;;;;;;;;64.50;53.00;;;;;20.24;38.39;103396.56;5057761;28;45620;-73
2023/01/24 00:58:43;;;;;;;;;67.25;51.00;;;;;20.32;38.65;103413.69;5057382;28;45313;-73
2023/01/24 01:01:09;;;;;;;;;66.25;52.00;;;;;20.20;38.34;103395.06;5057481;28;45487;-73
2023/01/24 01:03:35;;;;;;;;;64.50;50.00;;;;;20.29;38.57;103412.13;5057491;28;45691;-73
2023/01/24 01:06:06;;;;;;;;;66.75;52.00;;;;;20.18;38.32;103395.19;5057418;28;45486;-73
2023/01/24 01:08:32;;;;;;;;;64.50;51.50;;;;;20.29;38.24;103412.97;5057356;28;45266;-73
2023/01/24 01:10:58;;;;;;;;;65.00;50.50;;;;;20.30;38.48;103403.22;5057649;28;45256;-73
2023/01/24 01:13:25;;;;;;;;;64.50;50.50;;;;;20.25;38.23;103403.53;5057569;28;45435;-73
2023/01/24 01:15:50;;;;;;;;;60.50;49.25;;;;;20.21;38.11;103395.94;5057465;28;45290;-73
2023/01/24 01:18:16;;;;;;;;;62.50;49.50;;;;;20.29;38.57;103401.53;5056660;28;45503;-73
2023/01/24 01:20:41;;;;;;;;;64.75;51.00;;;;;20.29;38.48;103406.81;5057213;28;45353;-73
2023/01/24 01:23:07;;;;;;;;;62.75;47.25;;;;;20.29;38.10;103406.81;5057385;28;45354;-72
2023/01/24 01:25:32;;;;;;;;;60.75;47.75;;;;;20.17;38.56;103380.28;5057382;28;45448;-73
2023/01/24 01:27:58;;;;;;;;;63.00;47.25;;;;;20.30;38.24;103411.16;5056935;28;46287;-72
2023/01/24 01:30:23;;;;;;;;;58.25;48.25;;;;;20.31;38.09;103394.34;5056831;28;45427;-73
2023/01/24 01:32:49;;;;;;;;;59.50;47.00;;;;;20.30;38.39;103403.22;5038796;28;45462;-73
2023/01/24 01:35:14;;;;;;;;;63.00;48.25;;;;;20.30;38.58;103392.63;5057075;28;45486;-72
2023/01/24 01:37:39;;;;;;;;;58.25;45.00;;;;;20.31;38.52;103396.13;5056755;28;46308;-72
2023/01/24 01:40:06;;;;;;;;;61.50;47.50;;;;;20.31;38.20;103396.13;5057091;28;45347;-72
2023/01/24 01:42:52;;;;;;;;;55.25;45.50;;;;;20.31;38.29;103404.06;5056920;28;45352;-73
2023/01/24 01:45:53;;;;;;;;;56.00;45.50;;;;;20.28;38.53;103394.53;5056844;28;45375;-73
2023/01/24 01:48:24;;;;;;;;;59.00;46.25;;;;;20.29;38.19;103397.09;5055763;28;45377;-73
2023/01/24 01:50:56;;;;;;;;;62.25;47.00;;;;;20.31;38.14;103409.34;5056729;28;45340;-73
2023/01/24 01:53:27;;;;;;;;;56.00;46.00;;;;;20.30;38.44;103419.06;5056822;28;45231;-73
2023/01/24 01:56:02;;;;;;;;;53.50;41.75;;;;;20.29;38.09;103406.81;5056591;28;45409;-73
2023/01/24 01:58:27;;;;;;;;;55.50;45.25;;;;;20.29;38.16;103406.81;5056534;28;47327;-73
2023/01/24 02:00:53;;;;;;;;;58.00;42.75;;;;;20.22;38.12;103397.63;5056105;28;45397;-72
2023/01/24 02:03:38;;;;;;;;;56.00;44.50;;;;;20.28;38.21;103408.63;5056618;28;45448;-73
2023/01/24 02:06:10;;;;;;;;;58.00;46.50;;;;;20.29;38.20;103406.81;5056486;28;45453;-74
2023/01/24 02:08:36;;;;;;;;;55.25;44.00;;;;;20.28;38.41;103413.06;5038295;28;47267;-73
2023/01/24 02:13:46;;;;;;;;;54.00;41.25;;;;;20.27;38.24;103414.84;5056672;28;45317;-73
2023/01/24 02:16:13;;;;;;;;;53.25;41.75;;;;;20.27;38.13;103408.75;5056105;28;45442;-70
2023/01/24 02:18:40;;;;;;;;;51.75;42.25;;;;;20.27;38.17;103414.03;5056032;28;47530;-73
2023/01/24 02:21:12;;;;;;;;;51.50;40.50;;;;;20.18;38.15;103389.06;5056446;28;45443;-73
2023/01/24 02:23:50;;;;;;;;;56.00;43.25;;;;;20.26;37.87;103396.47;5056400;28;45351;-73
2023/01/24 02:26:27;;;;;;;;;56.75;42.75;;;;;20.24;38.09;103409.78;5056216;28;45419;-73
2023/01/24 02:29:03;;;;;;;;;52.00;42.25;;;;;20.25;37.81;103400.88;5056091;28;46478;-72
2023/01/24 02:31:28;;;;;;;;;53.75;41.00;;;;;20.07;38.03;103372.09;5055724;28;45376;-73
2023/01/24 02:33:54;;;;;;;;;52.50;40.75;;;;;20.24;38.09;103395.72;5056222;28;45316;-73
2023/01/24 02:36:32;;;;;;;;;51.25;40.25;;;;;20.21;38.12;103388.84;5056377;28;45351;-73
2023/01/24 02:39:03;;;;;;;;;51.75;41.50;;;;;20.24;38.17;103398.38;5055882;28;48612;-73
2023/01/24 02:41:38;;;;;;;;;45.50;36.00;;;;;20.23;38.08;103394.03;5056100;28;45396;-72
2023/01/24 02:44:08;;;;;;;;;47.75;38.00;;;;;20.22;37.86;103387.88;5056042;28;45212;-71
2023/01/24 02:46:37;;;;;;;;;49.75;38.75;;;;;20.22;38.06;103395.00;5055615;28;45454;-71
2023/01/24 02:49:07;;;;;;;;;49.50;40.00;;;;;20.22;37.93;103397.63;5035433;28;45301;-73
2023/01/24 02:54:16;;;;;;;;;46.50;36.00;;;;;20.21;38.05;103391.50;5036240;28;45314;-73
2023/01/24 02:59:26;;;;;;;;;46.25;36.50;;;;;20.21;38.09;103388.84;5035157;28;45667;-73
2023/01/24 03:01:51;;;;;;;;;46.50;36.50;;;;;20.21;37.80;103393.28;5035361;28;45449;-73
2023/01/24 03:04:17;;;;;;;;;43.50;36.25;;;;;20.21;37.79;103383.56;5035818;28;45408;-73
2023/01/24 03:06:43;;;;;;;;;44.75;35.75;;;;;20.19;37.92;103388.13;5035642;28;45402;-73
2023/01/24 03:09:18;;;;;;;;;46.50;37.75;;;;;20.14;37.63;103380.47;5035426;28;46193;-72
2023/01/24 03:11:45;;;;;;;;;44.50;36.50;;;;;20.13;38.09;103384.09;5035413;28;45452;-72
2023/01/24 03:36:06;;;;;;;;;42.75;35.50;;;;;20.17;37.58;103390.84;5035261;28;45216;-72
2023/01/24 03:41:16;;;;;;;;;42.00;33.50;;;;;20.03;37.36;103361.84;5035258;28;45870;-72
2023/01/24 03:43:43;;;;;;;;;44.25;33.25;;;;;20.16;37.70;103396.25;5034665;28;45477;-73
2023/01/24 03:46:08;;;;;;;;;38.25;32.00;;;;;20.15;37.41;103395.41;5034979;28;45442;-72
2023/01/24 03:48:36;;;;;;;;;35.25;30.75;;;;;20.15;37.41;103386.63;5051440;28;45401;-73
2023/01/24 03:53:47;;;;;;;;;40.75;32.50;;;;;20.16;37.59;103398.88;5055139;28;45407;-73
2023/01/24 03:56:13;;;;;;;;;39.25;32.75;;;;;20.11;37.45;103387.75;5055238;28;45956;-72
2023/01/24 03:58:39;;;;;;;;;41.50;33.75;;;;;20.16;37.44;103391.81;5036559;28;45498;-73
2023/01/24 04:01:05;;;;;;;;;40.50;33.25;;;;;20.16;37.68;103388.31;5058296;28;45635;-73
2023/01/24 04:03:32;;;;;;;;;37.75;31.00;;;;;20.16;37.62;103390.97;5058376;28;45403;-73
2023/01/24 04:05:58;;;;;;;;;30.25;28.50;;;;;20.09;37.76;103385.19;5058583;28;45317;-73
2023/01/24 04:08:23;;;;;;;;;33.00;28.75;;;;;20.18;37.53;103402.28;5058521;28;45450;-71
2023/01/24 04:10:48;;;;;;;;;30.25;26.00;;;;;20.17;37.60;103406.69;5058326;28;46053;-73
2023/01/24 04:13:14;;;;;;;;;34.25;31.75;;;;;20.11;37.38;103391.25;5058075;28;45429;-73
2023/01/24 04:15:39;;;;;;;;;32.00;29.50;;;;;20.16;37.66;103397.09;5058388;28;45289;-73
2023/01/24 04:18:06;;;;;;;;;35.50;30.50;;;;;20.10;37.41;103400.13;5058311;28;45242;-73
2023/01/24 04:20:34;;;;;;;;;30.25;27.50;;;;;20.17;37.57;103401.41;5058064;28;47026;-72
2023/01/24 04:23:01;;;;;;;;;29.25;25.25;;;;;20.10;37.76;103393.97;5058116;28;45343;-72
2023/01/24 04:25:27;;;;;;;;;35.50;31.00;;;;;20.11;37.72;103391.25;5058211;28;45337;-72
2023/01/24 04:27:52;;;;;;;;;31.25;26.25;;;;;20.18;37.57;103400.47;5057720;28;45323;-73
2023/01/24 04:30:18;;;;;;;;;29.75;28.50;;;;;20.17;37.57;103403.22;5057013;28;45328;-73
2023/01/24 04:32:43;;;;;;;;;32.25;29.50;;;;;20.16;37.44;103402.38;5058201;28;45446;-73
2023/01/24 04:35:21;;;;;;;;;27.75;22.75;;;;;20.16;37.72;103397.09;5058174;28;45417;-73
2023/01/24 04:37:47;;;;;;;;;32.75;27.00;;;;;20.17;37.42;103400.56;5058211;28;45403;-72
2023/01/24 04:40:13;;;;;;;;;31.50;24.50;;;;;20.15;37.41;103403.31;5057537;28;45914;-72
2023/01/24 04:42:38;;;;;;;;;30.00;26.75;;;;;20.17;37.45;103411.13;5057820;28;45313;-73
2023/01/24 04:45:04;;;;;;;;;19.00;17.75;;;;;20.04;37.47;103385.53;5057909;28;45476;-72
2023/01/24 04:47:30;;;;;;;;;21.75;21.25;;;;;20.17;37.40;103412.00;5057815;28;45384;-73
2023/01/24 04:49:55;;;;;;;;;28.50;24.75;;;;;20.15;37.90;103408.63;5057712;28;45924;-73
2023/01/24 04:52:20;;;;;;;;;28.75;27.00;;;;;20.16;37.57;103423.53;5057687;28;45306;-72
2023/01/24 04:54:46;;;;;;;;;27.25;25.25;;;;;20.11;37.31;103396.53;5057493;28;45792;-72
2023/01/24 04:57:12;;;;;;;;;30.00;28.50;;;;;20.15;37.23;103400.69;5039767;28;45500;-73
2023/01/24 04:59:37;;;;;;;;;28.25;24.75;;;;;20.16;37.30;103405.03;5057438;28;46042;-73
2023/01/24 05:02:03;;;;;;;;;30.25;27.00;;;;;20.17;37.30;103417.28;5044629;28;45419;-72
2023/01/24 05:04:28;;;;;;;;;28.00;21.75;;;;;20.15;37.51;103413.03;5037447;28;45342;-72
2023/01/24 05:06:54;;;;;;;;;26.75;24.75;;;;;20.15;37.52;103418.34;5037349;28;45415;-73
2023/01/24 05:09:19;;;;;;;;;27.25;25.00;;;;;20.15;37.58;103410.41;5036825;28;45955;-73
2023/01/24 05:11:44;;;;;;;;;25.25;23.50;;;;;20.14;37.25;103409.56;5037013;28;45381;-73
2023/01/24 05:14:10;;;;;;;;;30.75;27.75;;;;;20.10;37.48;103399.25;5037378;28;45418;-73
2023/01/24 05:16:36;;;;;;;;;28.75;25.00;;;;;20.14;37.25;103401.63;5037419;28;45350;-72
2023/01/24 05:19:01;;;;;;;;;27.00;26.00;;;;;20.09;37.19;103389.66;5037025;28;46919;-73
2023/01/24 05:21:26;;;;;;;;;28.00;25.75;;;;;20.14;37.42;103403.44;5037137;28;45349;-73
2023/01/24 05:23:53;;;;;;;;;27.00;24.00;;;;;20.08;37.59;103402.03;5036833;28;45305;-73
2023/01/24 05:26:21;;;;;;;;;29.25;23.25;;;;;20.13;37.22;103415.81;5037424;28;45290;-72
2023/01/24 05:28:46;;;;;;;;;24.50;24.25;;;;;20.13;37.35;103407.88;5036817;28;46240;-72
2023/01/24 05:31:12;;;;;;;;;26.00;24.00;;;;;20.13;37.15;103405.22;5036816;28;45540;-72
2023/01/24 05:33:37;;;;;;;;;28.00;24.50;;;;;20.13;37.47;103405.22;5037298;28;45305;-73
2023/01/24 05:36:06;;;;;;;;;25.00;23.00;;;;;20.08;37.24;103396.75;5036914;28;45373;-73
2023/01/24 05:38:32;;;;;;;;;19.75;19.75;;;;;20.13;37.52;103401.75;5036442;28;45373;-72
2023/01/24 05:41:04;;;;;;;;;26.25;21.50;;;;;20.13;37.11;103402.59;5036980;28;45326;-72
2023/01/24 05:43:29;;;;;;;;;23.75;18.50;;;;;20.06;37.18;103388.91;5036825;28;45470;-73
2023/01/24 05:46:03;;;;;;;;;28.25;22.50;;;;;20.11;37.36;103398.31;5036725;28;45424;-73
2023/01/24 05:48:28;;;;;;;;;24.25;20.25;;;;;20.10;37.46;103408.03;5051954;28;47286;-72
2023/01/24 05:51:02;;;;;;;;;25.75;21.00;;;;;20.10;37.57;103402.75;5056905;28;45485;-73
2023/01/24 05:53:30;;;;;;;;;25.75;22.50;;;;;20.10;37.37;103404.56;5056629;28;45412;-72
2023/01/24 05:56:00;;;;;;;;;24.00;21.50;;;;;20.11;37.26;103404.47;5056728;28;45357;-72
2023/01/24 05:58:27;;;;;;;;;26.25;24.50;;;;;20.02;37.61;103390.06;5056531;28;47240;-73
2023/01/24 06:00:53;;;;;;;;;21.00;19.00;;;;;20.11;37.36;103400.97;5056423;28;45409;-72
2023/01/24 06:03:19;;;;;;;;;24.00;21.75;;;;;20.06;37.46;103396.00;5056472;28;45432;-72
2023/01/24 06:05:46;;;;;;;;;25.00;23.25;;;;;20.12;37.55;103413.25;5056585;28;45325;-73
2023/01/24 06:08:12;;;;;;;;;20.00;16.00;;;;;20.07;37.31;103405.59;5056032;28;46384;-73
2023/01/24 06:10:37;;;;;;;;;21.25;19.75;;;;;20.10;37.26;103413.34;5056363;28;45381;-72
2023/01/24 06:13:02;;;;;;;;;23.25;21.50;;;;;20.13;37.32;103412.31;5056567;28;45226;-72
2023/01/24 06:15:28;;;;;;;;;18.75;18.25;;;;;20.13;37.51;103421.09;5056432;28;45178;-73
2023/01/24 06:17:53;;;;;;;;;19.25;17.75;;;;;20.14;37.28;103419.31;5056376;28;45338;-72
2023/01/24 06:20:19;;;;;;;;;22.50;18.50;;;;;20.04;37.28;103401.38;5056280;28;45329;-72
2023/01/24 06:22:53;;;;;;;;;19.25;17.50;;;;;20.07;37.26;103405.59;5055098;28;45390;-72
2023/01/24 06:25:22;;;;;;;;;22.50;17.25;;;;;20.16;37.41;103422.69;5056194;28;45340;-72
2023/01/24 06:27:48;;;;;;;;;22.75;18.00;;;;;20.17;37.58;103422.56;5055894;28;47200;-73
2023/01/24 06:30:15;;;;;;;;;19.50;14.50;;;;;20.19;37.29;103430.41;5056129;28;45393;-72
2023/01/24 06:33:19;;;;;;;;;20.50;17.50;;;;;20.20;37.20;103423.28;5056320;28;45230;-72
2023/01/24 06:36:14;;;;;;;;;22.75;19.50;;;;;20.21;37.25;103425.84;5056134;28;45433;-72
2023/01/24 06:38:39;;;;;;;;;18.75;17.50;;;;;20.22;37.22;103432.81;5055927;28;45279;-72
2023/01/24 06:41:14;;;;;;;;;16.50;16.50;;;;;20.23;37.27;103426.59;5055915;28;45348;-73
2023/01/24 06:43:40;;;;;;;;;15.50;14.00;;;;;20.23;37.25;103445.09;5056000;28;45254;-73
2023/01/24 06:46:05;;;;;;;;;17.00;16.75;;;;;20.24;37.33;103433.59;5055808;28;45356;-73
2023/01/24 06:48:30;;;;;;;;;23.75;15.50;;;;;20.25;37.37;103439.69;5055593;28;46313;-73
2023/01/24 06:50:56;;;;;;;;;18.25;16.25;;;;;20.26;37.25;103446.69;5055628;28;45293;-73
2023/01/24 06:53:22;;;;;;;;;19.25;16.75;;;;;20.26;37.14;103441.41;5055939;28;45285;-73
2023/01/24 06:55:47;;;;;;;;;19.00;16.25;;;;;20.10;37.18;103418.63;5055838;28;45345;-73
2023/01/24 06:58:13;;;;;;;;;21.00;17.50;;;;;20.27;37.29;103445.75;5055518;28;46829;-72
2023/01/24 07:00:38;;;;;;;;;17.75;17.00;;;;;20.26;37.16;103450.19;5055561;28;45268;-74
2023/01/24 07:03:06;;;;;;;;;16.50;15.00;;;;;20.26;37.22;103444.91;5055849;28;45835;-73
2023/01/24 07:05:33;;;;;;;;;21.25;17.75;;;;;20.26;37.68;103450.19;5055429;28;45473;-73
2023/01/24 07:07:59;;;;;;;;;19.25;15.75;;;;;20.24;37.64;103449.44;5055315;28;45429;-73
2023/01/24 07:10:25;;;;;;;;;18.00;14.25;;;;;20.27;37.78;103451.84;5055370;28;45511;-71
2023/01/24 07:12:50;;;;;;;;;17.25;14.25;;;;;19.92;38.08;103400.41;5055638;28;45333;-76
2023/01/24 07:15:16;;;;;;;;;16.50;14.00;;;;;20.27;37.93;103456.31;5037268;28;45346;-73
2023/01/24 07:17:42;;;;;;;;;21.25;17.00;;;;;20.28;38.10;103460.63;5055263;28;45285;-73
2023/01/24 07:20:09;;;;;;;;;19.25;15.00;;;;;20.28;38.02;103450.06;5049815;28;45460;-73
2023/01/24 07:22:37;;;;;;;;;17.50;14.00;;;;;20.28;37.69;103450.06;5047261;28;45499;-73
2023/01/24 07:25:04;;;;;;;;;16.00;15.50;;;;;20.29;37.69;103457.06;5051311;28;45490;-73
2023/01/24 07:27:29;;;;;;;;;19.75;14.75;;;;;20.21;38.04;103444.38;5054079;28;45459;-72
2023/01/24 07:29:54;;;;;;;;;15.00;12.75;;;;;20.16;37.63;103443.81;5054792;28;45378;-73
2023/01/24 07:32:20;;;;;;;;;20.75;16.00;;;;;20.28;37.85;103471.22;5053637;28;45417;-73
2023/01/24 07:34:45;;;;;;;;;12.00;9.50;;;;;20.28;37.62;103463.28;5053972;28;45492;-72
2023/01/24 07:37:10;;;;;;;;;15.50;15.25;;;;;20.22;37.81;103459.25;5056569;28;46038;-72
2023/01/24 07:39:36;;;;;;;;;15.75;14.75;;;;;20.27;37.91;103473.00;5056809;28;45473;-72
2023/01/24 07:42:01;;;;;;;;;15.50;13.50;;;;;20.23;37.84;103471.53;5040400;28;45344;-72
2023/01/24 07:44:26;;;;;;;;;16.50;14.75;;;;;20.27;37.69;103474.84;5057995;28;45290;-73
2023/01/24 07:46:52;;;;;;;;;19.00;17.25;;;;;20.26;37.70;103489.84;5054172;28;46100;-73
2023/01/24 07:49:17;;;;;;;;;20.25;15.75;;;;;20.21;37.59;103470.78;5057599;28;45380;-73
2023/01/24 07:51:44;;;;;;;;;17.25;13.25;;;;;20.26;37.64;103494.28;5057159;28;45456;-73
2023/01/24 07:54:10;;;;;;;;;14.75;12.00;;;;;20.25;37.65;103490.78;5057314;28;45579;-73
2023/01/24 07:56:35;;;;;;;;;17.00;13.75;;;;;20.10;37.68;103471.47;5057663;28;46180;-72
2023/01/24 07:59:01;;;;;;;;;16.00;14.75;;;;;20.24;37.56;103491.75;5056674;28;45433;-73
2023/01/24 08:01:26;;;;;;;;;15.25;13.75;;;;;20.24;37.72;103501.47;5057754;28;45901;-73
2023/01/24 08:03:56;;;;;;;;;14.50;11.00;;;;;20.24;37.63;103504.97;5056636;28;45419;-73
2023/01/24 08:06:22;;;;;;;;;14.25;12.00;;;;;20.23;37.55;103511.19;5038473;28;47065;-73
2023/01/24 08:08:47;;;;;;;;;15.50;13.50;;;;;20.23;37.49;103507.69;5057499;28;45463;-73
2023/01/24 08:11:15;;;;;;;;;17.75;14.25;;;;;20.23;37.61;103512.97;5057813;28;45364;-72
2023/01/24 08:13:41;;;;;;;;;18.25;15.75;;;;;20.23;37.54;103516.47;5057367;28;45388;-72
2023/01/24 08:16:07;;;;;;;;;20.50;15.50;;;;;20.20;37.47;103521.97;5057593;28;45440;-73
2023/01/24 08:18:32;;;;;;;;;15.25;14.00;;;;;20.22;37.67;103535.91;5057590;28;45476;-73
2023/01/24 08:20:57;;;;;;;;;17.75;13.75;;;;;20.22;37.57;103532.44;5057010;28;45381;-72
2023/01/24 08:23:22;;;;;;;;;17.00;15.00;;;;;20.22;37.45;103535.09;5054030;28;45483;-73
2023/01/24 08:25:48;;;;;;;;;16.50;14.75;;;;;20.21;37.36;103534.25;5057671;28;46402;-72
2023/01/24 08:28:13;;;;;;;;;22.25;15.50;;;;;20.16;37.58;103537.19;5055743;28;45522;-73
2023/01/24 08:30:39;;;;;;;;;14.75;12.50;;;;;20.21;37.34;103541.31;5056937;28;45783;-73
2023/01/24 08:33:06;;;;;;;;;14.50;13.25;;;;;20.21;37.42;103546.59;5037251;28;45566;-73
2023/01/24 08:35:32;;;;;;;;;12.00;12.00;;;;;20.15;37.66;103548.72;5055779;28;46258;-73
2023/01/24 08:37:58;;;;;;;;;14.75;14.75;;;;;20.15;37.60;103546.06;5055685;28;45445;-73
2023/01/24 08:40:24;;;;;;;;;15.25;14.25;;;;;20.13;37.37;103545.31;5056323;28;45340;-73
2023/01/24 08:42:50;;;;;;;;;15.00;13.75;;;;;20.19;37.58;103557.28;5057503;28;45438;-72
2023/01/24 08:45:15;;;;;;;;;18.25;13.00;;;;;20.21;37.44;103562.47;5055005;28;46250;-72
2023/01/24 08:47:41;;;;;;;;;15.50;15.50;;;;;20.20;37.38;103560.75;5056519;28;45310;-72
2023/01/24 08:50:07;;;;;;;;;14.00;13.50;;;;;20.19;37.20;103573.16;5057069;28;45430;-72
2023/01/24 08:52:32;;;;;;;;;13.75;12.00;;;;;20.13;37.27;103571.75;5055540;28;45432;-73
2023/01/24 08:54:58;;;;;;;;;18.00;14.00;;;;;20.18;37.32;103568.81;5053440;28;46337;-72
2023/01/24 08:57:23;;;;;;;;;15.75;14.00;;;;;20.09;37.00;103559.63;5055051;28;45460;-72
2023/01/24 08:59:48;;;;;;;;;18.50;14.00;;;;;20.16;37.12;103571.56;5055841;28;45352;-72
2023/01/24 09:02:16;;;;;;;;;17.50;14.50;;;;;20.12;36.85;103574.47;5055464;28;45408;-72
2023/01/24 09:04:44;;;;;;;;;18.75;15.50;;;;;20.16;37.21;103576.84;5063145;28;45461;-72
2023/01/24 09:07:10;;;;;;;;;16.00;14.75;;;;;20.16;37.06;103583.94;5056977;28;45360;-72
2023/01/24 09:09:36;;;;;;;;;16.00;14.00;;;;;20.15;37.11;103587.50;5056485;28;45425;-72
2023/01/24 09:12:01;;;;;;;;;12.25;7.00;;;;;20.16;37.04;103581.28;5056722;28;45438;-72
2023/01/24 09:14:26;;;;;;;;;14.50;13.75;;;;;20.14;36.99;103586.66;5056799;28;46762;-72
2023/01/24 09:16:52;;;;;;;;;12.75;12.25;;;;;20.14;36.97;103583.19;5038019;28;45515;-72
2023/01/24 09:19:17;;;;;;;;;15.50;13.00;;;;;20.12;36.58;103583.25;5056053;28;45583;-72
2023/01/24 09:21:43;;;;;;;;;9.50;7.75;;;;;20.11;37.07;103584.19;5056444;28;45455;-73
2023/01/24 09:24:09;;;;;;;;;16.50;15.00;;;;;20.14;37.06;103588.47;5054735;28;46267;-72
2023/01/24 09:26:34;;;;;;;;;15.75;14.00;;;;;20.13;37.22;103579.69;5056408;28;45384;-73
2023/01/24 09:29:00;;;;;;;;;13.25;13.00;;;;;20.13;36.64;103579.69;5056539;28;45320;-73
2023/01/24 09:31:25;;;;;;;;;15.75;15.00;;;;;20.14;36.95;103585.81;5055797;28;45415;-72
2023/01/24 09:33:50;;;;;;;;;14.25;12.75;;;;;20.14;36.99;103591.13;5055684;28;46731;-73
2023/01/24 09:36:16;;;;;;;;;12.75;12.75;;;;;20.12;37.23;103590.34;5054622;28;45345;-73
2023/01/24 09:38:41;;;;;;;;;17.75;15.00;;;;;19.85;37.06;103550.56;5052765;28;45310;-72
2023/01/24 09:41:43;;;;;;;;;14.00;12.00;;;;;20.15;37.23;103590.16;5051849;28;45633;-72
2023/01/24 09:44:33;;;;;;;;;13.50;13.50;;;;;20.15;37.17;103593.66;5055191;28;46328;-73
2023/01/24 09:47:05;;;;;;;;;13.50;13.00;;;;;20.15;37.23;103595.44;5055115;28;45281;-73
2023/01/24 09:49:50;;;;;;;;;14.50;12.50;;;;;20.03;36.95;103573.28;5055851;28;46498;-73
2023/01/24 09:52:29;;;;;;;;;15.00;12.75;;;;;20.14;37.12;103588.47;5056260;28;45476;-73
2023/01/24 09:55:09;;;;;;;;;15.00;13.50;;;;;20.14;36.90;103588.47;5055777;28;45941;-73
2023/01/24 09:58:00;;;;;;;;;16.00;13.00;;;;;20.13;36.76;103590.25;5048363;28;45389;-72
2023/01/24 10:00:33;;;;;;;;;12.00;12.00;;;;;20.14;36.98;103596.41;5050486;28;45600;-73
2023/01/24 10:03:00;;;;;;;;;17.50;13.00;;;;;20.11;37.21;103586.00;5044680;28;45554;-73
2023/01/24 10:05:47;;;;;;;;;11.75;10.00;;;;;19.84;37.14;103555.97;5055594;28;46347;-73
2023/01/24 10:08:33;;;;;;;;;13.00;13.00;;;;;20.13;37.15;103597.34;5054575;28;45383;-73
2023/01/24 10:11:36;;;;;;;;;16.25;13.50;;;;;20.13;37.14;103592.06;5055808;28;45372;-73
2023/01/24 10:14:26;;;;;;;;;13.25;13.25;;;;;20.12;36.98;103593.84;5054730;28;45391;-73
2023/01/24 10:17:12;;;;;;;;;18.25;13.00;;;;;20.05;37.11;103582.78;5053599;28;46118;-73
2023/01/24 10:20:07;;;;;;;;;13.50;12.75;;;;;20.13;37.12;103594.69;5055983;28;45174;-73
2023/01/24 10:22:57;;;;;;;;;22.50;16.25;;;;;20.13;36.90;103594.69;5055685;28;45588;-73
2023/01/24 10:25:28;;;;;;;;;17.00;12.25;;;;;20.09;37.03;103585.25;5054244;28;45364;-73
2023/01/24 10:27:59;;;;;;;;;11.50;9.00;;;;;20.11;37.10;103593.91;5054087;28;47167;-73
2023/01/24 10:30:43;;;;;;;;;13.00;11.50;;;;;20.10;37.10;103587.78;5054316;28;45367;-73
2023/01/24 10:33:16;;;;;;;;;13.25;12.75;;;;;20.10;36.97;103598.34;5054642;28;45411;-72
2023/01/24 10:35:58;;;;;;;;;13.50;13.50;;;;;20.10;37.06;103587.78;5055197;28;45700;-73
2023/01/24 10:38:25;;;;;;;;;17.75;15.75;;;;;20.03;36.96;103576.78;5050133;28;46542;-73
2023/01/24 10:40:59;;;;;;;;;17.25;13.50;;;;;20.10;36.90;103586.94;5043590;28;45407;-72
2023/01/24 10:43:31;;;;;;;;;12.25;10.50;;;;;20.10;36.97;103584.28;5051198;28;45379;-73
2023/01/24 10:46:20;;;;;;;;;16.25;12.00;;;;;20.04;36.94;103583.72;5054656;28;45358;-73
2023/01/24 10:48:49;;;;;;;;;13.00;12.00;;;;;20.05;37.13;103577.50;5054667;28;46379;-73
2023/01/24 10:51:20;;;;;;;;;14.00;11.75;;;;;20.08;36.93;103584.41;5049322;28;45494;-73
2023/01/24 10:53:47;;;;;;;;;11.00;11.00;;;;;20.08;37.10;103584.41;5054918;28;45290;-73
2023/01/24 10:56:15;;;;;;;;;10.75;10.75;;;;;20.07;36.95;103578.25;5054547;28;45458;-73
2023/01/24 10:58:42;;;;;;;;;18.75;13.50;;;;;20.07;36.93;103570.31;5036205;28;46307;-72
2023/01/24 11:01:18;;;;;;;;;12.75;12.00;;;;;20.09;37.00;103574.69;5053961;28;45423;-73
2023/01/24 11:03:49;;;;;;;;;14.75;12.50;;;;;20.09;36.79;103582.59;5055329;28;45224;-73
2023/01/24 11:06:37;;;;;;;;;15.25;13.75;;;;;20.08;37.03;103579.09;5054711;28;45448;-73
2023/01/24 11:09:11;;;;;;;;;14.50;11.00;;;;;20.01;37.03;103562.78;5054183;28;46347;-72
2023/01/24 11:11:57;;;;;;;;;14.25;12.25;;;;;20.07;36.91;103567.69;5054747;28;45439;-72
2023/01/24 11:14:34;;;;;;;;;12.75;11.25;;;;;20.00;36.56;103544.41;5055147;28;45219;-73
2023/01/24 11:17:01;;;;;;;;;15.00;14.50;;;;;20.08;36.91;103571.19;5066904;28;45592;-73
2023/01/24 11:19:31;;;;;;;;;13.25;12.50;;;;;20.07;37.02;103569.47;5061937;28;46103;-73
2023/01/24 11:21:59;;;;;;;;;13.75;10.75;;;;;20.06;36.79;103558.03;5054523;28;45359;-73
2023/01/24 11:24:25;;;;;;;;;12.25;12.00;;;;;20.02;37.24;103548.63;5054662;28;45462;-72
2023/01/24 11:26:55;;;;;;;;;13.25;11.50;;;;;20.05;36.58;103548.44;5054772;28;45485;-72
2023/01/24 11:29:22;;;;;;;;;17.50;13.00;;;;;20.06;36.86;103547.47;5054392;28;46499;-72
2023/01/24 11:32:01;;;;;;;;;14.00;11.50;;;;;19.96;36.86;103534.03;5052883;28;45344;-72
2023/01/24 11:34:41;;;;;;;;;15.00;13.25;;;;;20.01;36.66;103541.63;5054615;28;45460;-73
2023/01/24 11:37:17;;;;;;;;;16.00;11.50;;;;;20.06;36.37;103544.00;5054816;28;45293;-73
2023/01/24 11:40:21;;;;;;;;;11.75;11.75;;;;;20.05;36.71;103537.00;5053965;28;45375;-73
2023/01/24 11:43:17;;;;;;;;;21.00;18.25;;;;;20.01;35.74;103536.34;5007259;28;45381;-73
2023/01/24 11:45:51;;;;;;;;;17.25;16.75;;;;;19.97;35.97;103545.44;5008938;28;46147;-73
2023/01/24 11:48:20;;;;;;;;;11.00;10.25;;;;;19.94;36.15;103538.56;5010739;28;45475;-73
2023/01/24 11:50:52;;;;;;;;;16.50;13.75;;;;;19.95;36.50;103537.63;5010574;28;46347;-73
2023/01/24 11:53:38;;;;;;;;;15.75;12.75;;;;;19.94;36.53;103535.94;5002441;28;45397;-73